Latest Weather Observations for Tibooburra Airport

IDN60801

Issued at 10:32 pm EST Wednesday 25 May 2016 (issued every 30 minutes, with the page automatically refreshed every 10 minutes)

About weather observations | Map of weather stations | Latest weather observations for NSW | Other Formats
Station Details ID: 046126 Name: TIBOOBURRA AIRPORT Lat: -29.44 Lon: 142.06 Height: 176.4 m
Data from the previous 72 hours. | See also: Recent months at Tibooburra Airport
Date/Time
EST
Temp
°C
App
Temp
°C
Dew
Point
Rel
Hum
%
Delta-T
°C
Wind Press
QNH
hPa
Press
MSL
hPa
Rain
since 9 am
mm
Dir
 
Spd
km/h
Gust
km/h
Spd
kts
Gust
kts
25/10:30pm 18.2 14.5 4.7 41 6.5 N 13 17 7 9 1011.7 1011.4 0.0
25/10:00pm 18.7 14.9 4.1 38 7.0 NNE 13 15 7 8 1012.1 1011.8 0.0
25/09:30pm 19.0 14.8 4.0 37 7.2 NNE 15 17 8 9 1012.3 1012.0 0.0
25/09:00pm 19.0 15.1 3.2 35 7.5 NNE 13 17 7 9 1012.5 1012.2 0.0
25/08:30pm 18.9 15.0 3.5 36 7.3 NE 13 15 7 8 1012.6 1012.3 0.0
25/08:00pm 19.0 15.4 3.2 35 7.5 ENE 11 13 6 7 1012.7 1012.4 0.0
25/07:30pm 19.6 16.1 3.3 34 7.7 NE 11 13 6 7 1012.7 1012.4 0.0
25/07:00pm 19.7 16.5 3.0 33 7.9 ENE 9 9 5 5 1012.9 1012.6 0.0
25/06:30pm 20.5 16.9 2.8 31 8.4 NE 11 13 6 7 1012.8 1012.5 0.0
25/06:00pm 21.0 17.9 3.7 32 8.4 NE 9 13 5 7 1012.9 1012.6 0.0
25/05:30pm 22.2 17.9 3.3 29 9.1 NNE 15 20 8 11 1012.7 1012.4 0.0
25/05:00pm 23.1 19.0 2.0 25 10.0 NNE 13 17 7 9 1012.8 1012.5 0.0
25/04:30pm 24.0 19.8 1.6 23 10.6 N 13 17 7 9 1012.7 1012.4 0.0
25/04:00pm 24.4 19.8 1.3 22 10.9 N 15 20 8 11 1012.8 1012.5 0.0
25/03:30pm 24.3 19.6 1.2 22 10.9 NNE 15 19 8 10 1012.9 1012.6 0.0
25/03:00pm 24.1 19.7 0.4 21 11.0 NNE 13 19 7 10 1013.1 1012.8 0.0
25/02:30pm 24.2 19.1 0.5 21 11.0 N 17 22 9 12 1013.5 1013.2 0.0
25/02:00pm 23.3 18.1 0.4 22 10.6 N 17 24 9 13 1014.0 1013.7 0.0
25/01:30pm 23.3 17.4 -0.9 20 10.9 N 20 30 11 16 1014.1 1013.8 0.0
25/01:00pm 22.2 15.6 -0.5 22 10.2 N 24 32 13 17 1014.6 1014.4 0.0
25/12:30pm 21.4 14.9 0.6 25 9.5 NNE 24 32 13 17 1015.2 1015.0 0.0
25/12:00pm 20.7 14.3 1.1 27 9.0 NNE 24 32 13 17 1016.0 1015.8 0.0
25/11:30am 19.3 12.1 0.4 28 8.4 NNE 28 35 15 19 1016.6 1016.3 0.0
25/11:00am 19.1 12.1 -0.3 27 8.5 NNE 26 37 14 20 1017.0 1016.7 0.0
25/10:30am 17.5 9.8 0.2 31 7.6 NNE 30 37 16 20 1017.1 1016.8 0.0
25/10:00am 16.2 9.0 0.7 35 6.8 NNE 28 35 15 19 1017.7 1017.4 0.0
25/09:30am 15.0 8.6 1.2 39 6.0 NNE 24 33 13 18 1017.9 1017.6 0.0
25/09:00am 12.9 7.6 1.9 47 4.8 NNE 19 26 10 14 1018.1 1017.8 0.0
25/08:30am 11.1 6.6 2.4 55 3.8 NNE 15 19 8 10 1018.3 1018.0 0.0
25/08:00am 10.2 5.3 2.1 57 3.5 NNE 17 20 9 11 1018.3 1018.0 0.0
25/07:30am 9.5 5.0 2.1 60 3.1 NNE 15 19 8 10 1018.5 1018.2 0.0
25/07:00am 8.5 3.2 2.1 64 2.7 NE 19 22 10 12 1017.5 1017.2 0.0
25/06:30am 9.4 4.2 2.3 61 3.0 NE 19 22 10 12 1017.6 1017.3 0.0
25/06:00am 9.3 4.1 2.2 61 3.0 NE 19 20 10 11 1017.7 1017.4 0.0
25/05:30am 9.9 4.7 2.3 59 3.3 NE 19 24 10 13 1017.8 1017.5 0.0
25/05:00am 9.7 4.5 2.3 60 3.2 NE 19 20 10 11 1017.8 1017.5 0.0
25/04:30am 9.7 5.2 2.3 60 3.2 NE 15 17 8 9 1018.0 1017.7 0.0
25/04:00am 9.6 5.1 2.2 60 3.1 NE 15 15 8 8 1018.3 1018.0 0.0
25/03:30am 9.5 5.8 2.1 60 3.1 NE 11 13 6 7 1018.8 1018.5 0.0
25/03:00am 9.6 5.8 2.0 59 3.2 NE 11 11 6 6 1018.9 1018.6 0.0
25/02:30am 9.8 6.0 1.9 58 3.3 NNE 11 13 6 7 1018.9 1018.6 0.0
25/02:00am 9.7 5.5 1.6 57 3.4 NE 13 13 7 7 1019.0 1018.7 0.0
25/01:30am 10.1 6.6 1.5 55 3.6 NE 9 11 5 6 1019.3 1019.1 0.0
25/01:00am 10.6 6.4 1.4 53 3.9 NE 13 15 7 8 1019.6 1019.4 0.0
25/12:30am 10.2 5.9 1.1 53 3.8 NE 13 15 7 8 1019.9 1019.7 0.0
25/12:00am 9.9 5.2 1.0 54 3.7 ENE 15 15 8 8 1020.0 1019.8 0.0
 
Date/Time
EST
Temp
°C
App
Temp
°C
Dew
Point
Rel
Hum
%
Delta-T
°C
Wind Press
QNH
hPa
Press
MSL
hPa
Rain
since 9 am
mm
Dir
 
Spd
km/h
Gust
km/h
Spd
kts
Gust
kts
24/11:30pm 10.3 6.4 0.9 52 3.9 ENE 11 13 6 7 1020.2 1020.0 0.0
24/11:00pm 11.2 6.5 0.9 49 4.3 ENE 15 15 8 8 1020.5 1020.3 0.0
24/10:30pm 11.8 7.5 0.9 47 4.6 ENE 13 15 7 8 1020.6 1020.4 0.0
24/10:00pm 11.8 7.9 0.9 47 4.6 ENE 11 13 6 7 1021.0 1020.8 0.0
24/09:30pm 12.1 7.8 0.8 46 4.8 ENE 13 13 7 7 1021.2 1021.0 0.0
24/09:00pm 12.2 8.6 0.6 45 4.9 E 9 9 5 5 1021.4 1021.2 0.0
24/08:30pm 12.6 8.7 1.0 45 4.9 ENE 11 13 6 7 1021.3 1021.1 0.0
24/08:00pm 12.7 8.7 0.8 44 5.0 ENE 11 13 6 7 1021.2 1021.0 0.0
24/07:30pm 13.5 9.2 0.9 42 5.4 ENE 13 15 7 8 1021.0 1020.8 0.0
24/07:00pm 14.3 10.0 0.9 40 5.8 ENE 13 13 7 7 1021.0 1020.8 0.0
24/06:30pm 15.0 11.0 0.4 37 6.3 ENE 11 13 6 7 1020.8 1020.6 0.0
24/06:00pm 16.2 11.4 0.3 34 6.9 E 15 15 8 8 1020.6 1020.4 0.0
24/05:30pm 18.4 13.2 0.1 29 8.1 E 17 20 9 11 1020.5 1020.3 0.0
24/05:00pm 19.4 13.9 0.4 28 8.5 E 19 22 10 12 1020.4 1020.2 0.0
24/04:30pm 19.8 15.0 0.3 27 8.7 E 15 22 8 12 1020.4 1020.2 0.0
24/04:00pm 20.2 15.1 0.6 27 8.8 E 17 24 9 13 1020.6 1020.4 0.0
24/03:30pm 20.1 14.4 -0.5 25 9.1 E 19 24 10 13 1020.6 1020.4 0.0
24/03:00pm 20.0 14.8 -0.1 26 8.9 E 17 24 9 13 1020.8 1020.6 0.0
24/02:30pm 19.7 14.5 0.2 27 8.7 E 17 28 9 15 1021.1 1020.9 0.0
24/02:00pm 19.6 13.8 0.1 27 8.6 ENE 20 26 11 14 1021.3 1021.1 0.0
24/01:30pm 19.9 14.4 0.9 28 8.6 ENE 19 28 10 15 1021.5 1021.3 0.0
24/01:00pm 19.4 13.3 0.4 28 8.5 ENE 22 32 12 17 1021.8 1021.6 0.0
24/12:30pm 18.8 12.3 0.4 29 8.2 E 24 32 13 17 1022.3 1022.0 0.0
24/12:00pm 18.7 12.3 1.2 31 7.9 E 24 32 13 17 1023.0 1022.7 0.0
24/11:30am 17.8 11.1 1.3 33 7.4 E 26 32 14 17 1023.9 1023.6 0.0
24/11:00am 17.3 10.3 1.7 35 7.0 E 28 35 15 19 1024.0 1023.8 0.0
24/10:30am 16.3 11.1 3.4 42 6.0 ENE 20 26 11 14 1024.3 1024.1 0.0
24/10:00am 15.2 10.0 3.7 46 5.3 E 20 24 11 13 1024.3 1024.1 0.0
24/09:30am 14.4 8.9 3.8 49 4.9 E 22 26 12 14 1024.2 1024.0 0.0
24/09:00am 13.0 8.8 3.9 54 4.1 E 15 19 8 10 1024.2 1024.0 0.0
24/08:30am 10.9 7.1 3.7 61 3.2 E 13 17 7 9 1023.9 1023.6 0.0
24/08:00am 9.4 5.5 3.2 65 2.7 ESE 13 17 7 9 1023.6 1023.3 0.0
24/07:30am 8.0 3.9 2.5 68 2.3 ESE 13 15 7 8 1023.5 1023.2 0.0
24/07:00am 8.4 4.3 2.4 66 2.5 SE 13 13 7 7 1023.6 1023.3 0.0
24/06:30am 9.6 5.6 2.7 62 3.0 SE 13 15 7 8 1023.4 1023.1 0.0
24/06:00am 9.4 5.8 2.7 63 2.9 SE 11 13 6 7 1023.4 1023.1 0.0
24/05:30am 9.4 5.7 2.5 62 3.0 ESE 11 11 6 6 1023.3 1023.0 0.0
24/05:00am 10.6 6.2 2.7 58 3.4 SE 15 17 8 9 1023.0 1022.7 0.0
24/04:30am 10.6 6.2 2.7 58 3.4 SSE 15 17 8 9 1023.2 1022.9 0.0
24/04:00am 11.2 6.4 2.8 56 3.7 SSE 17 20 9 11 1023.4 1023.1 0.0
24/03:30am 11.0 6.7 3.1 58 3.5 SSE 15 17 8 9 1023.6 1023.3 0.0
24/03:00am 10.1 6.5 2.7 60 3.2 SSE 11 13 6 7 1023.7 1023.4 0.0
24/02:30am 10.6 6.6 2.7 58 3.4 SSE 13 15 7 8 1023.6 1023.3 0.0
24/02:00am 10.9 6.9 2.7 57 3.6 SSE 13 15 7 8 1023.5 1023.2 0.0
24/01:30am 10.9 6.5 2.5 56 3.6 SSE 15 17 8 9 1023.5 1023.2 0.0
24/01:00am 11.5 7.1 2.5 54 3.9 SSE 15 17 8 9 1023.8 1023.5 0.0
24/12:30am 12.0 7.9 2.2 51 4.3 SE 13 17 7 9 1023.9 1023.6 0.0
24/12:00am 12.8 7.5 2.1 48 4.7 SE 19 20 10 11 1023.9 1023.6 0.0
 
Date/Time
EST
Temp
°C
App
Temp
°C
Dew
Point
Rel
Hum
%
Delta-T
°C
Wind Press
QNH
hPa
Press
MSL
hPa
Rain
since 9 am
mm
Dir
 
Spd
km/h
Gust
km/h
Spd
kts
Gust
kts
23/11:30pm 12.3 7.7 1.6 48 4.6 SE 15 17 8 9 1024.0 1023.8 0.0
23/11:00pm 12.3 8.0 1.3 47 4.7 SE 13 15 7 8 1023.9 1023.6 0.0
23/10:30pm 13.2 9.0 1.5 45 5.1 SE 13 15 7 8 1023.8 1023.5 0.0
23/10:00pm 14.0 9.4 1.3 42 5.5 SE 15 17 8 9 1023.7 1023.4 0.0
23/09:30pm 14.3 9.7 1.6 42 5.6 SE 15 17 8 9 1023.7 1023.4 0.0
23/09:00pm 13.8 9.9 1.1 42 5.5 SE 11 13 6 7 1023.7 1023.4 0.0
23/08:30pm 14.9 10.6 1.1 39 6.0 SE 13 15 7 8 1023.5 1023.2 0.0
23/08:00pm 15.3 11.0 0.7 37 6.3 SSE 13 15 7 8 1023.4 1023.1 0.0
23/07:30pm 16.0 11.3 1.0 36 6.6 SSE 15 17 8 9 1023.2 1022.9 0.0
23/07:00pm 16.7 12.4 1.2 35 6.9 SSE 13 19 7 10 1023.1 1022.8 0.0
23/06:30pm 17.5 12.8 0.6 32 7.5 SSE 15 19 8 10 1022.8 1022.5 0.0
23/06:00pm 18.1 13.0 0.7 31 7.7 SSE 17 20 9 11 1022.5 1022.2 0.0
23/05:30pm 18.8 12.6 -0.1 28 8.3 SSE 22 28 12 15 1022.3 1022.0 0.0
23/05:00pm 19.5 13.3 -0.5 26 8.8 SSE 22 30 12 16 1022.0 1021.8 0.0
23/04:30pm 20.2 13.9 -1.0 24 9.3 SSE 22 32 12 17 1022.2 1021.9 0.0
23/04:00pm 20.5 13.5 -0.2 25 9.2 SSE 26 32 14 17 1021.9 1021.7 0.0
23/03:30pm 20.8 13.9 0.1 25 9.3 SSE 26 35 14 19 1021.7 1021.5 0.0
23/03:00pm 20.9 13.5 -0.4 24 9.5 SSE 28 35 15 19 1021.7 1021.5 0.0
23/02:30pm 21.0 14.7 1.3 27 9.1 SSE 24 35 13 19 1021.8 1021.6 0.0
23/02:00pm 21.0 13.9 1.3 27 9.0 SSE 28 37 15 20 1021.8 1021.6 0.0
23/01:30pm 20.7 13.6 1.6 28 8.8 SE 28 41 15 22 1022.2 1021.9 0.0
23/01:00pm 20.3 12.5 1.7 29 8.6 SSE 32 43 17 23 1022.5 1022.2 0.0
23/12:30pm 19.8 11.9 0.8 28 8.6 SSE 32 41 17 22 1022.8 1022.5 0.0
23/12:00pm 19.8 12.0 1.7 30 8.3 SSE 32 44 17 24 1023.2 1022.9 0.0
23/11:30am 19.2 11.1 3.0 34 7.6 SSE 35 44 19 24 1023.6 1023.3 0.0
23/11:00am 18.8 11.0 3.0 35 7.4 SSE 33 44 18 24 1023.9 1023.6 0.0
23/10:30am 18.1 10.4 3.2 37 7.0 SSE 33 44 18 24 1023.8 1023.5 0.0
23/10:00am 18.3 9.2 1.8 33 7.5 S 39 48 21 26 1023.6 1023.3 0.0
23/09:30am 17.8 9.9 2.2 35 7.1 SSE 33 43 18 23 1023.4 1023.1 0.0
23/09:00am 17.0 8.8 4.7 44 5.9 S 37 46 20 25 1023.0 1022.7 0.0
23/08:30am 16.8 9.6 4.8 45 5.7 S 32 41 17 22 1022.7 1022.4 0.0
23/08:00am 16.4 8.7 5.4 48 5.3 S 35 46 19 25 1022.0 1021.8 0.0
23/07:30am 16.1 9.4 5.4 49 5.2 SSW 30 43 16 23 1021.9 1021.7 0.0
23/07:00am 16.5 8.8 5.2 47 5.4 SSW 35 46 19 25 1021.3 1021.1 0.0
23/06:30am 17.2 9.8 4.9 44 5.9 SSW 33 43 18 23 1021.2 1021.0 0.0
23/06:00am 17.5 11.1 9.4 59 4.3 SSW 33 43 18 23 1020.7 1020.5 0.0
23/05:30am 18.0 10.2 9.6 58 4.5 SSW 41 52 22 28 1019.9 1019.7 0.0
23/05:10am 18.7 11.7 10.0 57 4.7 SSW 37 61 20 33 1019.8 1019.6 0.0
23/05:00am 19.2 13.1 10.5 57 4.7 SSW 33 44 18 24 1019.6 1019.4 0.0
23/04:30am 19.6 14.8 10.3 55 5.0 SSW 26 35 14 19 1019.3 1019.1 0.0
23/04:00am 20.5 14.4 9.7 50 5.8 SW 32 43 17 23 1018.9 1018.6 0.0
23/03:30am 22.4 16.5 9.2 43 7.1 WSW 30 37 16 20 1018.5 1018.2 0.0
23/03:00am 22.7 18.0 9.1 42 7.3 W 24 30 13 16 1018.2 1017.9 0.0
23/02:30am 23.0 19.1 8.7 40 7.7 W 19 24 10 13 1018.0 1017.7 0.0
23/02:00am 23.2 19.6 8.5 39 7.9 NW 17 20 9 11 1017.6 1017.3 0.0
23/01:30am 22.8 19.7 8.9 41 7.5 NW 15 19 8 10 1017.7 1017.4 0.0
23/01:00am 22.6 19.5 9.0 42 7.3 NNW 15 19 8 10 1017.6 1017.3 0.0
23/12:30am 22.2 19.1 8.7 42 7.2 N 15 19 8 10 1017.9 1017.6 0.0
23/12:00am 23.0 19.9 8.7 40 7.7 N 15 19 8 10 1017.7 1017.4 0.0
 
Date/Time
EST
Temp
°C
App
Temp
°C
Dew
Point
Rel
Hum
%
Delta-T
°C
Wind Press
QNH
hPa
Press
MSL
hPa
Rain
since 9 am
mm
Dir
 
Spd
km/h
Gust
km/h
Spd
kts
Gust
kts
22/11:30pm 23.5 19.5 8.4 38 8.1 NNW 19 22 10 12 1017.7 1017.4 0.0
22/11:00pm 23.8 19.8 8.2 37 8.3 NNW 19 22 10 12 1017.8 1017.5 0.0

Other Formats:

Comma delimited format used in spreadsheet applications
http://www.bom.gov.au/fwo/IDN60801/IDN60801.95485.axf

JavaScript Object Notation format (JSON) in row-major order
http://www.bom.gov.au/fwo/IDN60801/IDN60801.95485.json